メインページ
METAR-TAF:

METAR-TAF

空港 :

フンシャル, マデイラ諸島, ポルトガル

マデイラ空港

緯度: 32-41-52N, 経度: 016-46-28W, 海抜: 59m

現時点の気象観測

当レポートは27分前の03:00(UTC)に作成
の風 15kt、最大26ktの突風を伴う、北/北西から北東の間で変化する
気温 17°C
湿度 72%
気圧 1029 hPa
視程10km以上
高度1600ftの雲はほとんどない

METAR: LPMA 170300Z 01015G26KT 330V050 9999 FEW016 17/12 Q1029

時間: 03:27 (03:27 UTC)

予報

当レポートは4時間27分前の23:00(UTC)に作成
予報は17日の 00時(UTC)から 17日の 24時(UTC)まで有効
北/北東の風 15kt
視程10km以上
高度1600ftの雲は散在している
高度3000ftの雲は散在している
17日の 00時(UTC)から 17日の 24時(UTC)まで一時的に
北/北東の風 18kt、最大30ktの突風を伴う
確率 40% :
17日の 00時(UTC)から 17日の 18時(UTC)まで一時的に
視程: 6000m
高度800ftの雲は散在している
高度1300ftの千切れ雲あり
小雨

TAF: LPMA 162300Z 1700/1724 02015KT 9999 SCT016 SCT030 TEMPO 1700/1724 02018G30KT PROB40 TEMPO 1700/1718 6000 -RA SCT008 BKN013

4,000以上の空港の気象観測と天気予報(METAR報とTAF報)

利用可能な観測所は地図上に黄色い丸と赤い丸で示す。

丸の上にカーソルを重ねると観測所名を参照できる。

次にクリックすると気象観測と天気予報を参照できる。

マップの切り替え:黒色「×」印の緑ボタンをクリックして拡大、「-」印の緑ボタンをクリックして縮小、緑色の三角印をクリックして隣りの地図に切り替え


METAR-TAF: